createdAt,value
2022-08-16T00:02:56.547Z,67.49
2022-08-16T00:05:58.743Z,65.28
2022-08-16T00:09:02.140Z,63.77
2022-08-16T00:12:05.186Z,64.51
2022-08-16T00:15:12.220Z,65.59
2022-08-16T00:18:22.099Z,65.79
2022-08-16T00:21:30.257Z,65.46
2022-08-16T00:24:34.558Z,66.19
2022-08-16T00:27:37.004Z,66.73
2022-08-16T00:30:40.173Z,67.30
2022-08-16T00:33:50.305Z,67.77
2022-08-16T00:36:55.581Z,67.27
2022-08-16T00:39:58.776Z,68.17
2022-08-16T00:43:02.190Z,67.86
2022-08-16T00:46:33.556Z,68.23
2022-08-16T00:49:43.454Z,67.78
2022-08-16T00:52:51.221Z,67.38
2022-08-16T00:55:55.704Z,68.62
2022-08-16T00:58:58.502Z,68.17
2022-08-16T01:02:30.795Z,68.14
2022-08-16T01:05:29.559Z,69.98
2022-08-16T01:08:36.404Z,71.04
2022-08-16T01:11:53.885Z,71.50
2022-08-16T01:14:59.250Z,71.63
2022-08-16T01:18:04.471Z,70.25
2022-08-16T01:22:47.448Z,70.42
2022-08-16T01:25:37.475Z,69.70
2022-08-16T01:28:45.579Z,69.48
2022-08-16T01:31:48.615Z,71.42
2022-08-16T01:34:56.974Z,72.47
2022-08-16T01:38:21.394Z,72.70
2022-08-16T01:41:30.878Z,71.24
2022-08-16T01:44:37.603Z,72.18
2022-08-16T01:47:49.522Z,73.78
2022-08-16T01:51:08.944Z,75.46
2022-08-16T01:54:16.122Z,76.51
2022-08-16T01:57:22.661Z,76.35
2022-08-16T02:00:29.411Z,75.54
2022-08-16T02:03:32.344Z,76.03
2022-08-16T02:06:37.913Z,75.99
2022-08-16T02:09:41.499Z,76.10
2022-08-16T02:12:51.310Z,76.56
2022-08-16T02:15:58.049Z,77.35
2022-08-16T02:19:02.637Z,79.54
2022-08-16T02:22:34.197Z,79.03
2022-08-16T02:25:50.943Z,78.71
2022-08-16T02:28:55.385Z,78.97
2022-08-16T02:32:03.643Z,79.27
2022-08-16T02:35:07.580Z,79.90
2022-08-16T02:38:11.516Z,79.80
2022-08-16T02:41:13.795Z,81.14
2022-08-16T02:44:16.327Z,80.15
2022-08-16T02:47:25.276Z,80.92
2022-08-16T02:50:54.531Z,82.31
2022-08-16T02:53:50.788Z,83.67
2022-08-16T02:56:55.116Z,82.09
2022-08-16T03:00:00.210Z,82.71
2022-08-16T03:03:10.611Z,85.57
2022-08-16T03:06:42.171Z,84.23
2022-08-16T03:09:36.883Z,85.20
2022-08-16T03:12:56.080Z,82.53
2022-08-16T03:15:59.053Z,83.90
2022-08-16T03:19:01.631Z,83.86
2022-08-16T03:22:04.411Z,82.74
2022-08-16T03:25:09.569Z,80.99
2022-08-16T03:28:12.665Z,82.07
2022-08-16T03:31:16.292Z,81.00
2022-08-16T03:34:19.435Z,84.62
2022-08-16T03:37:22.787Z,85.09
2022-08-16T03:40:33.411Z,84.29
2022-08-16T03:43:50.995Z,85.73
2022-08-16T03:46:54.445Z,85.07
2022-08-16T03:50:00.949Z,85.01
2022-08-16T03:53:06.159Z,86.71
2022-08-16T03:56:19.831Z,88.88
2022-08-16T03:59:23.159Z,87.84
2022-08-16T04:02:31.264Z,86.20
2022-08-16T04:05:36.337Z,84.45
2022-08-16T04:08:39.957Z,83.01
2022-08-16T04:11:42.209Z,84.98
2022-08-16T04:14:46.763Z,86.25
2022-08-16T04:17:50.392Z,84.99
2022-08-16T04:20:52.801Z,83.81
2022-08-16T04:23:59.158Z,82.57
2022-08-16T04:27:01.391Z,82.29
2022-08-16T04:30:11.021Z,80.10
2022-08-16T04:33:13.436Z,79.54
2022-08-16T04:36:19.973Z,81.25
2022-08-16T04:39:24.261Z,82.30
2022-08-16T04:42:29.587Z,82.13
2022-08-16T04:45:35.522Z,79.86
2022-08-16T04:48:39.153Z,78.80
2022-08-16T04:51:43.446Z,79.71
2022-08-16T04:54:56.311Z,77.52
2022-08-16T04:57:58.615Z,75.54
2022-08-16T05:01:01.665Z,76.32
2022-08-16T05:04:04.869Z,75.95
2022-08-16T05:07:23.310Z,73.31
2022-08-16T05:10:28.506Z,70.36
2022-08-16T05:13:40.087Z,65.80
2022-08-16T05:16:44.651Z,62.59
2022-08-16T05:19:58.098Z,61.24
2022-08-16T05:23:00.744Z,60.03
2022-08-16T05:26:03.085Z,54.88
2022-08-16T05:29:06.885Z,52.26
2022-08-16T05:32:32.925Z,51.90
2022-08-16T05:35:35.861Z,50.93
2022-08-16T05:38:40.051Z,51.57
2022-08-16T05:41:45.201Z,49.15
2022-08-16T05:44:48.109Z,46.31
2022-08-16T05:48:00.014Z,48.17
2022-08-16T05:51:03.774Z,48.03
2022-08-16T05:54:14.086Z,53.15
2022-08-16T05:57:18.287Z,54.98
2022-08-16T06:00:22.324Z,53.26
2022-08-16T06:03:24.700Z,51.74
2022-08-16T06:06:28.932Z,53.71
2022-08-16T06:09:42.807Z,52.44
2022-08-16T06:12:46.477Z,50.83
2022-08-16T06:15:54.959Z,49.80
2022-08-16T06:18:57.291Z,49.26
2022-08-16T06:21:59.957Z,49.25
2022-08-16T06:25:02.203Z,49.31
2022-08-16T06:28:10.061Z,48.62
2022-08-16T06:31:14.311Z,47.54
2022-08-16T06:34:31.617Z,46.24
2022-08-16T06:37:40.585Z,47.13
2022-08-16T06:40:49.279Z,45.49
2022-08-16T06:43:51.860Z,46.06
2022-08-16T06:46:54.181Z,44.21
2022-08-16T06:49:56.405Z,45.60
2022-08-16T06:53:08.721Z,46.00
2022-08-16T06:56:14.495Z,44.32
2022-08-16T06:59:25.936Z,42.50
2022-08-16T07:02:32.297Z,41.52
2022-08-16T07:05:42.206Z,42.72
2022-08-16T07:08:46.503Z,43.29
2022-08-16T07:11:52.214Z,43.82
2022-08-16T07:14:58.451Z,45.73
2022-08-16T07:18:04.363Z,44.73
2022-08-16T07:21:06.715Z,43.83
2022-08-16T07:24:09.885Z,43.24
2022-08-16T07:27:33.869Z,44.02
2022-08-16T07:30:45.698Z,41.41
2022-08-16T07:33:53.813Z,39.35
2022-08-16T07:36:58.929Z,37.47
2022-08-16T07:40:02.383Z,38.49
2022-08-16T07:43:13.869Z,38.32
2022-08-16T07:46:37.812Z,39.89
2022-08-16T07:49:38.275Z,39.95
2022-08-16T07:52:55.712Z,39.09
2022-08-16T07:56:00.523Z,37.46
2022-08-16T07:59:03.945Z,37.58
2022-08-16T08:02:11.907Z,38.29
2022-08-16T08:05:15.377Z,37.95
2022-08-16T08:08:49.221Z,37.87
2022-08-16T08:11:41.192Z,36.44
2022-08-16T08:15:04.059Z,35.97
2022-08-16T08:18:30.166Z,35.35
2022-08-16T08:22:00.779Z,34.22
2022-08-16T08:24:53.283Z,33.41
2022-08-16T08:27:57.637Z,32.93
2022-08-16T08:31:03.187Z,33.89
2022-08-16T08:34:07.304Z,34.47
2022-08-16T08:37:09.815Z,33.29
2022-08-16T08:40:13.038Z,33.77
2022-08-16T08:43:18.081Z,34.28
2022-08-16T08:46:22.028Z,33.54
2022-08-16T08:49:24.768Z,33.75
2022-08-16T08:52:48.142Z,32.43
2022-08-16T08:55:59.207Z,33.77
2022-08-16T08:59:06.053Z,32.80
2022-08-16T09:02:19.589Z,33.88
2022-08-16T09:05:24.234Z,33.05
2022-08-16T09:08:39.874Z,33.24
2022-08-16T09:12:04.232Z,33.85
2022-08-16T09:15:13.547Z,33.43
2022-08-16T09:18:25.384Z,33.52
2022-08-16T09:21:31.216Z,33.04
2022-08-16T09:24:52.759Z,31.96
2022-08-16T09:27:57.682Z,30.49
2022-08-16T09:31:03.215Z,30.19
2022-08-16T09:34:05.488Z,31.05
2022-08-16T09:37:17.927Z,29.54
2022-08-16T09:40:32.894Z,29.94
2022-08-16T09:43:59.829Z,29.99
2022-08-16T09:47:03.981Z,30.02
2022-08-16T09:50:13.866Z,29.59
2022-08-16T09:53:26.792Z,28.65
2022-08-16T09:56:32.274Z,28.02
2022-08-16T09:59:38.663Z,28.70
2022-08-16T10:02:44.189Z,29.19
2022-08-16T10:05:47.582Z,30.13
2022-08-16T10:09:05.003Z,29.06
2022-08-16T10:12:28.264Z,29.18
2022-08-16T10:15:30.707Z,28.32
2022-08-16T10:18:56.629Z,28.53
2022-08-16T10:21:57.309Z,27.91
2022-08-16T10:25:00.563Z,28.25
2022-08-16T10:28:27.637Z,26.56
2022-08-16T10:31:46.138Z,26.94
2022-08-16T10:34:47.691Z,28.32
2022-08-16T10:37:54.607Z,27.66
2022-08-16T10:40:56.998Z,27.05
2022-08-16T10:43:59.317Z,27.74
2022-08-16T10:47:02.242Z,29.08
2022-08-16T10:50:06.774Z,29.21
2022-08-16T10:53:21.885Z,28.46
2022-08-16T10:56:52.266Z,28.18
2022-08-16T10:59:53.236Z,27.69
2022-08-16T11:03:04.844Z,27.55
2022-08-16T11:06:08.172Z,29.94
2022-08-16T11:09:25.371Z,29.03
2022-08-16T11:12:31.335Z,28.98
2022-08-16T11:15:35.370Z,28.60
2022-08-16T11:18:48.604Z,28.74
2022-08-16T11:22:39.691Z,29.11
2022-08-16T11:32:13.249Z,29.98
2022-08-16T11:38:55.625Z,29.81
2022-08-16T11:42:01.016Z,28.84
2022-08-16T11:45:05.074Z,28.33
2022-08-16T11:48:08.867Z,28.43
2022-08-16T11:51:11.480Z,28.31
2022-08-16T11:54:20.667Z,28.57
2022-08-16T11:57:25.603Z,26.82
2022-08-16T12:00:44.919Z,27.14
2022-08-16T12:03:53.320Z,27.58
2022-08-16T12:06:58.499Z,26.81
2022-08-16T12:10:02.253Z,27.08
2022-08-16T12:13:06.385Z,27.37
2022-08-16T12:16:12.873Z,27.45
2022-08-16T12:19:20.151Z,27.41
2022-08-16T12:22:25.695Z,27.42
2022-08-16T12:25:30.756Z,28.10
2022-08-16T12:28:54.006Z,28.06
2022-08-16T12:32:01.068Z,27.47
2022-08-16T12:35:19.716Z,27.52
2022-08-16T12:38:41.525Z,27.35
2022-08-16T12:41:46.213Z,26.84
2022-08-16T12:44:50.276Z,26.61
2022-08-16T12:48:32.833Z,26.09
2022-08-16T12:51:59.468Z,25.93
2022-08-16T12:55:04.684Z,25.69
2022-08-16T12:58:14.118Z,25.50
2022-08-16T13:01:33.971Z,24.86
2022-08-16T13:04:37.698Z,24.71
2022-08-16T13:07:45.431Z,25.24
2022-08-16T13:10:55.182Z,25.96
2022-08-16T13:14:01.341Z,25.73
2022-08-16T13:17:09.030Z,25.45
2022-08-16T13:20:16.239Z,25.46
2022-08-16T13:23:18.805Z,25.85
2022-08-16T13:26:22.047Z,25.55
2022-08-16T13:29:24.285Z,25.48
2022-08-16T13:32:39.585Z,25.67
2022-08-16T13:35:45.933Z,25.40
2022-08-16T13:38:59.091Z,25.32
2022-08-16T13:42:03.162Z,25.44
2022-08-16T13:45:07.119Z,25.38
2022-08-16T13:48:11.217Z,25.57
2022-08-16T13:51:24.660Z,25.93
2022-08-16T13:54:29.923Z,25.78
2022-08-16T13:57:42.927Z,25.64
2022-08-16T14:00:56.094Z,25.97
2022-08-16T14:04:01.258Z,25.89
2022-08-16T14:07:05.661Z,25.36
2022-08-16T14:10:10.838Z,26.50
2022-08-16T14:13:19.889Z,26.04
2022-08-16T14:16:33.729Z,26.52
2022-08-16T14:19:37.020Z,27.58
2022-08-16T14:22:52.219Z,27.84
2022-08-16T14:25:58.119Z,28.97
2022-08-16T14:29:03.557Z,29.66
2022-08-16T14:32:08.152Z,29.68
2022-08-16T14:35:18.405Z,30.43
2022-08-16T14:38:23.516Z,29.83
2022-08-16T14:41:27.896Z,29.51
2022-08-16T14:44:30.485Z,29.08
2022-08-16T14:47:34.852Z,29.80
2022-08-16T14:50:37.405Z,27.67
2022-08-16T14:53:45.336Z,27.37
2022-08-16T14:56:55.151Z,28.03
2022-08-16T15:00:01.969Z,28.31
2022-08-16T15:03:10.647Z,31.62
2022-08-16T15:06:13.403Z,36.21
2022-08-16T15:09:17.026Z,39.16
2022-08-16T15:12:26.875Z,36.24
2022-08-16T15:15:37.336Z,41.25
2022-08-16T15:18:40.100Z,43.09
2022-08-16T15:21:43.288Z,42.89
2022-08-16T15:24:45.509Z,41.91
2022-08-16T15:27:55.051Z,44.18
2022-08-16T15:31:00.401Z,49.55
2022-08-16T15:34:05.673Z,66.38
2022-08-16T15:37:07.951Z,79.54
2022-08-16T15:40:26.862Z,84.07
2022-08-16T15:43:39.843Z,79.26
2022-08-16T15:46:55.186Z,86.63
2022-08-16T15:50:00.504Z,90.79
2022-08-16T15:53:10.558Z,91.01
2022-08-16T15:56:15.111Z,85.07
2022-08-16T15:59:17.807Z,86.42
2022-08-16T16:02:27.610Z,86.81
2022-08-16T16:05:32.328Z,96.47
2022-08-16T16:08:34.944Z,90.07
2022-08-16T16:11:41.249Z,98.79
2022-08-16T16:14:44.020Z,83.35
2022-08-16T16:17:50.762Z,92.20
2022-08-16T16:21:20.165Z,96.84
2022-08-16T16:24:30.536Z,100.00
2022-08-16T16:27:33.557Z,100.00
2022-08-16T16:30:44.589Z,100.00
2022-08-16T16:33:50.443Z,100.00
2022-08-16T16:36:52.955Z,100.00
2022-08-16T16:39:57.103Z,100.00
2022-08-16T16:43:00.885Z,100.00
2022-08-16T16:46:42.328Z,95.43
2022-08-16T16:49:28.115Z,100.00
2022-08-16T16:52:44.329Z,100.00
2022-08-16T16:55:52.270Z,100.00
2022-08-16T16:59:01.087Z,100.00
2022-08-16T17:02:41.454Z,100.00
2022-08-16T17:05:29.238Z,100.00
2022-08-16T17:08:35.278Z,100.00
2022-08-16T17:11:40.999Z,100.00
2022-08-16T17:14:43.325Z,100.00
2022-08-16T17:19:17.789Z,100.00
2022-08-16T17:21:08.970Z,100.00
2022-08-16T17:24:17.364Z,100.00
2022-08-16T17:27:32.504Z,100.00
2022-08-16T17:30:45.431Z,100.00
2022-08-16T17:33:54.507Z,100.00
2022-08-16T17:37:05.409Z,100.00
2022-08-16T17:40:46.079Z,100.00
2022-08-16T17:43:44.149Z,100.00
2022-08-16T17:46:52.500Z,100.00
2022-08-16T17:49:55.240Z,100.00
2022-08-16T17:52:57.682Z,100.00
2022-08-16T17:56:00.502Z,100.00
2022-08-16T17:59:02.745Z,100.00
2022-08-16T18:02:15.317Z,100.00
2022-08-16T18:05:29.026Z,100.00
2022-08-16T18:08:31.592Z,100.00
2022-08-16T18:11:41.179Z,91.85
2022-08-16T18:14:50.404Z,89.77
2022-08-16T18:17:54.909Z,96.35
2022-08-16T18:21:16.008Z,99.19
2022-08-16T18:24:19.016Z,100.00
2022-08-16T18:27:26.890Z,100.00
2022-08-16T18:30:29.671Z,100.00
2022-08-16T18:33:31.988Z,100.00
2022-08-16T18:36:34.741Z,100.00
2022-08-16T18:39:37.713Z,100.00
2022-08-16T18:42:40.360Z,100.00
2022-08-16T18:45:45.125Z,100.00
2022-08-16T18:48:47.362Z,100.00
2022-08-16T18:51:50.991Z,100.00
2022-08-16T18:55:01.451Z,100.00
2022-08-16T18:58:05.922Z,100.00
2022-08-16T19:01:10.820Z,100.00
2022-08-16T19:04:54.851Z,100.00
2022-08-16T19:07:36.158Z,100.00
2022-08-16T19:10:39.019Z,100.00
2022-08-16T19:13:45.585Z,100.00
2022-08-16T19:16:48.206Z,100.00
2022-08-16T19:19:50.430Z,100.00
2022-08-16T19:23:05.158Z,100.00
2022-08-16T19:26:24.566Z,100.00
2022-08-16T19:29:28.586Z,100.00
2022-08-16T19:32:30.823Z,100.00
2022-08-16T19:35:34.180Z,100.00
2022-08-16T19:38:37.147Z,100.00
2022-08-16T19:41:46.291Z,100.00
2022-08-16T19:44:57.815Z,100.00
2022-08-16T19:48:03.636Z,100.00
2022-08-16T19:51:06.129Z,100.00
2022-08-16T19:54:08.336Z,100.00
2022-08-16T19:57:11.212Z,100.00
2022-08-16T20:00:17.253Z,100.00
2022-08-16T20:03:21.461Z,100.00
2022-08-16T20:06:32.343Z,100.00
2022-08-16T20:09:40.970Z,100.00
2022-08-16T20:12:43.718Z,100.00
2022-08-16T20:16:04.570Z,100.00
2022-08-16T20:19:07.475Z,100.00
2022-08-16T20:22:54.884Z,100.00
2022-08-16T20:25:57.156Z,100.00
2022-08-16T20:28:59.420Z,100.00
2022-08-16T20:32:02.415Z,100.00
2022-08-16T20:35:07.628Z,100.00
2022-08-16T20:38:09.996Z,100.00
2022-08-16T20:41:12.864Z,100.00
2022-08-16T20:44:15.224Z,100.00
2022-08-16T20:47:18.537Z,100.00
2022-08-16T20:50:22.545Z,100.00
2022-08-16T20:53:24.792Z,100.00
2022-08-16T20:56:27.090Z,100.00
2022-08-16T20:59:29.420Z,100.00
2022-08-16T21:02:31.701Z,100.00
2022-08-16T21:05:34.364Z,100.00
2022-08-16T21:08:51.713Z,100.00
2022-08-16T21:11:57.698Z,100.00
2022-08-16T21:15:06.067Z,100.00
2022-08-16T21:18:08.310Z,100.00
2022-08-16T21:21:12.129Z,100.00
2022-08-16T21:24:14.455Z,100.00
2022-08-16T21:27:17.623Z,100.00
2022-08-16T21:30:25.083Z,100.00
2022-08-16T21:33:33.280Z,100.00
2022-08-16T21:36:36.513Z,100.00
2022-08-16T21:39:39.246Z,100.00
2022-08-16T21:42:42.948Z,100.00
2022-08-16T21:45:46.627Z,100.00
2022-08-16T21:48:48.890Z,100.00
2022-08-16T21:51:51.459Z,100.00
2022-08-16T21:54:56.211Z,100.00
2022-08-16T21:57:58.817Z,100.00
2022-08-16T22:01:01.758Z,100.00
2022-08-16T22:04:36.554Z,100.00
2022-08-16T22:07:26.657Z,100.00
2022-08-16T22:11:06.959Z,100.00
2022-08-16T22:13:57.839Z,100.00
2022-08-16T22:17:01.594Z,100.00
2022-08-16T22:20:06.114Z,100.00
2022-08-16T22:23:11.462Z,100.00
2022-08-16T22:26:14.830Z,100.00
2022-08-16T22:29:17.549Z,100.00
2022-08-16T22:32:19.759Z,100.00
2022-08-16T22:35:22.000Z,100.00
2022-08-16T22:38:55.279Z,100.00
2022-08-16T22:41:49.847Z,100.00
2022-08-16T22:44:52.569Z,100.00
2022-08-16T22:47:55.073Z,100.00
2022-08-16T22:50:57.329Z,100.00
2022-08-16T22:54:00.149Z,100.00
2022-08-16T22:57:22.312Z,100.00
2022-08-16T23:00:27.498Z,100.00
2022-08-16T23:03:29.834Z,100.00
2022-08-16T23:06:32.014Z,100.00
2022-08-16T23:09:34.291Z,100.00
2022-08-16T23:12:48.394Z,100.00
2022-08-16T23:15:56.942Z,100.00
2022-08-16T23:19:08.862Z,100.00
2022-08-16T23:22:11.130Z,100.00
2022-08-16T23:25:25.572Z,100.00
2022-08-16T23:28:30.525Z,100.00
2022-08-16T23:31:33.024Z,100.00
2022-08-16T23:34:35.370Z,100.00
2022-08-16T23:37:37.992Z,100.00
2022-08-16T23:40:40.677Z,100.00
2022-08-16T23:43:43.708Z,100.00
2022-08-16T23:46:47.792Z,100.00
2022-08-16T23:50:01.253Z,100.00
2022-08-16T23:53:15.302Z,100.00
2022-08-16T23:56:20.096Z,100.00
2022-08-16T23:59:22.580Z,100.00
